sensor_id;sensor_type;location;lat;lon;timestamp;temperature;humidity
13707;DHT22;6925;47.816;13.072;2022-07-06T06:30:41;20.40;72.20
13707;DHT22;6925;47.816;13.072;2022-07-06T08:31:54;22.20;63.30
13707;DHT22;6925;47.816;13.072;2022-07-06T08:46:11;22.60;61.80
13707;DHT22;6925;47.816;13.072;2022-07-06T08:48:44;22.70;63.30
13707;DHT22;6925;47.816;13.072;2022-07-06T08:51:13;23.00;64.60
13707;DHT22;6925;47.816;13.072;2022-07-06T08:53:42;23.10;62.50
13707;DHT22;6925;47.816;13.072;2022-07-06T08:56:14;23.10;63.90
13707;DHT22;6925;47.816;13.072;2022-07-06T08:58:41;23.20;63.60
13707;DHT22;6925;47.816;13.072;2022-07-06T09:01:11;23.30;63.00
13707;DHT22;6925;47.816;13.072;2022-07-06T09:03:45;23.30;62.60
13707;DHT22;6925;47.816;13.072;2022-07-06T09:06:16;23.40;64.40
13707;DHT22;6925;47.816;13.072;2022-07-06T09:08:47;23.50;60.50
13707;DHT22;6925;47.816;13.072;2022-07-06T09:17:08;23.60;60.40
13707;DHT22;6925;47.816;13.072;2022-07-06T09:19:42;23.70;59.40
13707;DHT22;6925;47.816;13.072;2022-07-06T09:25:21;23.70;57.70
13707;DHT22;6925;47.816;13.072;2022-07-06T11:42:04;27.20;48.70
13707;DHT22;6925;47.816;13.072;2022-07-06T12:53:53;29.10;44.10
13707;DHT22;6925;47.816;13.072;2022-07-06T12:56:23;29.30;45.90
13707;DHT22;6925;47.816;13.072;2022-07-06T13:24:43;29.80;40.40
13707;DHT22;6925;47.816;13.072;2022-07-06T13:27:16;30.00;43.10
13707;DHT22;6925;47.816;13.072;2022-07-06T13:29:44;30.20;42.40
13707;DHT22;6925;47.816;13.072;2022-07-06T13:32:12;30.40;42.50
13707;DHT22;6925;47.816;13.072;2022-07-06T13:34:39;30.40;42.10
13707;DHT22;6925;47.816;13.072;2022-07-06T13:40:07;30.80;42.40
13707;DHT22;6925;47.816;13.072;2022-07-06T13:42:34;30.90;41.00
13707;DHT22;6925;47.816;13.072;2022-07-06T13:45:02;31.10;41.20
13707;DHT22;6925;47.816;13.072;2022-07-06T13:47:29;30.90;41.00
13707;DHT22;6925;47.816;13.072;2022-07-06T13:49:57;31.00;40.20
13707;DHT22;6925;47.816;13.072;2022-07-06T13:52:27;31.10;41.50
13707;DHT22;6925;47.816;13.072;2022-07-06T13:55:09;31.20;35.70
13707;DHT22;6925;47.816;13.072;2022-07-06T13:57:37;31.10;37.20
13707;DHT22;6925;47.816;13.072;2022-07-06T14:00:09;31.10;39.60
13707;DHT22;6925;47.816;13.072;2022-07-06T14:02:36;31.20;38.30
13707;DHT22;6925;47.816;13.072;2022-07-06T14:05:06;31.30;37.40
13707;DHT22;6925;47.816;13.072;2022-07-06T14:07:34;31.40;40.00
13707;DHT22;6925;47.816;13.072;2022-07-06T14:10:04;31.60;38.40
13707;DHT22;6925;47.816;13.072;2022-07-06T14:12:49;31.80;39.00
13707;DHT22;6925;47.816;13.072;2022-07-06T14:15:27;31.80;39.20
13707;DHT22;6925;47.816;13.072;2022-07-06T14:18:18;31.80;38.70
13707;DHT22;6925;47.816;13.072;2022-07-06T14:20:47;31.90;37.20
13707;DHT22;6925;47.816;13.072;2022-07-06T14:23:35;31.90;38.10
13707;DHT22;6925;47.816;13.072;2022-07-06T14:26:19;31.80;35.70
13707;DHT22;6925;47.816;13.072;2022-07-06T14:28:53;31.80;36.50
13707;DHT22;6925;47.816;13.072;2022-07-06T14:31:53;31.60;35.10
13707;DHT22;6925;47.816;13.072;2022-07-06T14:34:29;31.70;37.30
13707;DHT22;6925;47.816;13.072;2022-07-06T14:37:04;31.80;36.60
13707;DHT22;6925;47.816;13.072;2022-07-06T14:39:35;31.70;35.30
13707;DHT22;6925;47.816;13.072;2022-07-06T14:42:04;31.80;36.40
13707;DHT22;6925;47.816;13.072;2022-07-06T14:44:35;31.70;35.20
13707;DHT22;6925;47.816;13.072;2022-07-06T14:47:06;31.80;35.60
13707;DHT22;6925;47.816;13.072;2022-07-06T14:56:28;31.80;36.40
13707;DHT22;6925;47.816;13.072;2022-07-06T14:59:45;31.80;36.40
13707;DHT22;6925;47.816;13.072;2022-07-06T15:02:24;32.00;39.60
13707;DHT22;6925;47.816;13.072;2022-07-06T15:04:52;32.10;36.70
13707;DHT22;6925;47.816;13.072;2022-07-06T15:07:22;32.00;35.00
13707;DHT22;6925;47.816;13.072;2022-07-06T15:09:50;31.80;34.40
13707;DHT22;6925;47.816;13.072;2022-07-06T15:12:17;31.70;34.10
13707;DHT22;6925;47.816;13.072;2022-07-06T15:14:46;31.60;36.40
13707;DHT22;6925;47.816;13.072;2022-07-06T15:17:14;31.60;36.30
13707;DHT22;6925;47.816;13.072;2022-07-06T15:19:42;31.60;35.30
13707;DHT22;6925;47.816;13.072;2022-07-06T15:22:10;31.70;37.80
13707;DHT22;6925;47.816;13.072;2022-07-06T15:24:38;31.90;36.90
13707;DHT22;6925;47.816;13.072;2022-07-06T15:27:06;31.90;37.00
13707;DHT22;6925;47.816;13.072;2022-07-06T15:29:34;32.00;37.50
13707;DHT22;6925;47.816;13.072;2022-07-06T15:32:03;31.80;36.20
13707;DHT22;6925;47.816;13.072;2022-07-06T15:34:33;31.90;36.70
13707;DHT22;6925;47.816;13.072;2022-07-06T15:37:27;31.80;34.20
13707;DHT22;6925;47.816;13.072;2022-07-06T15:39:54;31.80;38.00
13707;DHT22;6925;47.816;13.072;2022-07-06T15:42:21;31.80;38.80
13707;DHT22;6925;47.816;13.072;2022-07-06T15:44:50;31.70;35.10
13707;DHT22;6925;47.816;13.072;2022-07-06T15:47:20;31.70;36.90
13707;DHT22;6925;47.816;13.072;2022-07-06T15:49:48;31.70;35.90
13707;DHT22;6925;47.816;13.072;2022-07-06T15:52:18;31.50;35.60
13707;DHT22;6925;47.816;13.072;2022-07-06T15:54:47;31.30;34.90
13707;DHT22;6925;47.816;13.072;2022-07-06T15:57:28;31.30;36.90
13707;DHT22;6925;47.816;13.072;2022-07-06T16:00:03;31.30;35.30
13707;DHT22;6925;47.816;13.072;2022-07-06T16:02:38;31.30;37.10
13707;DHT22;6925;47.816;13.072;2022-07-06T16:05:06;31.30;38.30
13707;DHT22;6925;47.816;13.072;2022-07-06T16:07:35;31.30;36.00
13707;DHT22;6925;47.816;13.072;2022-07-06T16:10:21;31.30;36.70
13707;DHT22;6925;47.816;13.072;2022-07-06T16:12:51;31.10;35.20
13707;DHT22;6925;47.816;13.072;2022-07-06T16:46:23;30.00;41.40
13707;DHT22;6925;47.816;13.072;2022-07-06T16:48:51;29.90;42.40
13707;DHT22;6925;47.816;13.072;2022-07-06T16:51:19;29.80;43.00
13707;DHT22;6925;47.816;13.072;2022-07-06T16:53:46;29.70;42.90
13707;DHT22;6925;47.816;13.072;2022-07-06T16:56:13;29.60;43.80
13707;DHT22;6925;47.816;13.072;2022-07-06T16:58:41;29.50;43.20
13707;DHT22;6925;47.816;13.072;2022-07-06T17:01:08;29.30;43.50
13707;DHT22;6925;47.816;13.072;2022-07-06T17:03:37;29.20;42.90
13707;DHT22;6925;47.816;13.072;2022-07-06T17:06:06;29.00;42.90
13707;DHT22;6925;47.816;13.072;2022-07-06T17:08:34;28.90;43.90
13707;DHT22;6925;47.816;13.072;2022-07-06T17:11:01;28.80;44.50
13707;DHT22;6925;47.816;13.072;2022-07-06T17:13:29;28.70;44.90
13707;DHT22;6925;47.816;13.072;2022-07-06T17:15:57;28.60;44.80
13707;DHT22;6925;47.816;13.072;2022-07-06T17:18:25;28.50;45.00
13707;DHT22;6925;47.816;13.072;2022-07-06T17:20:57;28.50;45.00
13707;DHT22;6925;47.816;13.072;2022-07-06T17:23:30;28.40;45.20
13707;DHT22;6925;47.816;13.072;2022-07-06T17:36:23;28.00;43.00
13707;DHT22;6925;47.816;13.072;2022-07-06T17:38:51;27.90;44.30
13707;DHT22;6925;47.816;13.072;2022-07-06T17:41:21;27.80;45.20
13707;DHT22;6925;47.816;13.072;2022-07-06T17:46:20;27.70;45.80
13707;DHT22;6925;47.816;13.072;2022-07-06T17:48:48;27.70;45.60
13707;DHT22;6925;47.816;13.072;2022-07-06T17:51:16;27.60;45.60
13707;DHT22;6925;47.816;13.072;2022-07-06T17:53:45;27.50;46.10
13707;DHT22;6925;47.816;13.072;2022-07-06T17:56:27;27.40;45.70
13707;DHT22;6925;47.816;13.072;2022-07-06T17:58:54;27.30;46.00
13707;DHT22;6925;47.816;13.072;2022-07-06T18:01:23;27.20;46.60
13707;DHT22;6925;47.816;13.072;2022-07-06T18:03:50;27.10;46.40
13707;DHT22;6925;47.816;13.072;2022-07-06T18:06:18;27.00;46.50
13707;DHT22;6925;47.816;13.072;2022-07-06T18:08:47;27.00;46.40
13707;DHT22;6925;47.816;13.072;2022-07-06T18:11:15;26.90;46.90
13707;DHT22;6925;47.816;13.072;2022-07-06T18:13:42;26.80;47.10
13707;DHT22;6925;47.816;13.072;2022-07-06T18:16:09;26.80;47.60
13707;DHT22;6925;47.816;13.072;2022-07-06T18:18:37;26.70;47.10
13707;DHT22;6925;47.816;13.072;2022-07-06T18:21:06;26.60;46.70
13707;DHT22;6925;47.816;13.072;2022-07-06T18:23:33;26.60;46.70
13707;DHT22;6925;47.816;13.072;2022-07-06T18:26:02;26.50;47.00
13707;DHT22;6925;47.816;13.072;2022-07-06T18:28:32;26.40;46.90
13707;DHT22;6925;47.816;13.072;2022-07-06T18:31:00;26.40;47.90
13707;DHT22;6925;47.816;13.072;2022-07-06T18:33:27;26.30;47.30
13707;DHT22;6925;47.816;13.072;2022-07-06T18:35:56;26.20;48.10
13707;DHT22;6925;47.816;13.072;2022-07-06T18:38:24;26.10;48.10
13707;DHT22;6925;47.816;13.072;2022-07-06T18:40:51;26.10;48.20
13707;DHT22;6925;47.816;13.072;2022-07-06T18:43:25;26.00;48.50
13707;DHT22;6925;47.816;13.072;2022-07-06T18:45:55;25.90;48.60
13707;DHT22;6925;47.816;13.072;2022-07-06T18:48:22;25.80;48.40
13707;DHT22;6925;47.816;13.072;2022-07-06T18:50:50;25.70;47.90
13707;DHT22;6925;47.816;13.072;2022-07-06T18:53:17;25.70;49.80
13707;DHT22;6925;47.816;13.072;2022-07-06T18:55:45;25.60;49.90
13707;DHT22;6925;47.816;13.072;2022-07-06T18:58:13;25.50;49.70
13707;DHT22;6925;47.816;13.072;2022-07-06T19:00:42;25.40;49.40
13707;DHT22;6925;47.816;13.072;2022-07-06T19:03:10;25.40;50.70
13707;DHT22;6925;47.816;13.072;2022-07-06T19:05:37;25.30;49.80
13707;DHT22;6925;47.816;13.072;2022-07-06T19:08:05;25.30;51.00
13707;DHT22;6925;47.816;13.072;2022-07-06T19:10:32;25.20;50.50
13707;DHT22;6925;47.816;13.072;2022-07-06T19:13:00;25.10;50.00
13707;DHT22;6925;47.816;13.072;2022-07-06T19:15:29;25.00;50.50
13707;DHT22;6925;47.816;13.072;2022-07-06T19:17:58;25.00;51.40
13707;DHT22;6925;47.816;13.072;2022-07-06T19:20:26;24.90;50.90
13707;DHT22;6925;47.816;13.072;2022-07-06T19:22:55;24.90;51.10
13707;DHT22;6925;47.816;13.072;2022-07-06T19:25:24;24.80;51.50
13707;DHT22;6925;47.816;13.072;2022-07-06T19:27:52;24.70;51.80
13707;DHT22;6925;47.816;13.072;2022-07-06T19:30:20;24.70;51.60
13707;DHT22;6925;47.816;13.072;2022-07-06T19:32:48;24.70;51.80
13707;DHT22;6925;47.816;13.072;2022-07-06T19:35:18;24.60;50.70
13707;DHT22;6925;47.816;13.072;2022-07-06T19:37:45;24.50;51.50
13707;DHT22;6925;47.816;13.072;2022-07-06T19:40:14;24.50;52.10
13707;DHT22;6925;47.816;13.072;2022-07-06T19:42:42;24.40;51.80
13707;DHT22;6925;47.816;13.072;2022-07-06T19:45:10;24.40;52.70
13707;DHT22;6925;47.816;13.072;2022-07-06T19:47:38;24.30;53.20
13707;DHT22;6925;47.816;13.072;2022-07-06T19:50:07;24.30;52.60
13707;DHT22;6925;47.816;13.072;2022-07-06T19:52:37;24.30;52.40
13707;DHT22;6925;47.816;13.072;2022-07-06T19:55:05;24.20;52.90
13707;DHT22;6925;47.816;13.072;2022-07-06T19:57:33;24.10;53.00
13707;DHT22;6925;47.816;13.072;2022-07-06T20:00:00;24.00;53.50
13707;DHT22;6925;47.816;13.072;2022-07-06T20:02:29;23.90;54.00
13707;DHT22;6925;47.816;13.072;2022-07-06T20:04:57;23.90;54.10
13707;DHT22;6925;47.816;13.072;2022-07-06T20:07:26;23.80;54.40
13707;DHT22;6925;47.816;13.072;2022-07-06T20:09:55;23.80;54.30
13707;DHT22;6925;47.816;13.072;2022-07-06T20:12:23;23.80;54.70
13707;DHT22;6925;47.816;13.072;2022-07-06T20:14:52;23.70;54.60
13707;DHT22;6925;47.816;13.072;2022-07-06T20:17:20;23.60;54.20
13707;DHT22;6925;47.816;13.072;2022-07-06T20:19:47;23.60;54.90
13707;DHT22;6925;47.816;13.072;2022-07-06T20:22:15;23.50;54.60
13707;DHT22;6925;47.816;13.072;2022-07-06T20:24:42;23.50;54.60
13707;DHT22;6925;47.816;13.072;2022-07-06T20:27:14;23.50;55.00
13707;DHT22;6925;47.816;13.072;2022-07-06T20:29:41;23.40;55.20
13707;DHT22;6925;47.816;13.072;2022-07-06T20:32:09;23.40;54.70
13707;DHT22;6925;47.816;13.072;2022-07-06T20:34:36;23.30;55.10
13707;DHT22;6925;47.816;13.072;2022-07-06T20:37:04;23.20;54.60
13707;DHT22;6925;47.816;13.072;2022-07-06T20:39:31;23.20;54.20
13707;DHT22;6925;47.816;13.072;2022-07-06T20:41:59;23.20;54.70
13707;DHT22;6925;47.816;13.072;2022-07-06T20:44:28;23.20;55.10
13707;DHT22;6925;47.816;13.072;2022-07-06T20:46:55;23.10;54.80
13707;DHT22;6925;47.816;13.072;2022-07-06T20:49:23;23.00;55.20
13707;DHT22;6925;47.816;13.072;2022-07-06T20:51:50;23.00;55.80
13707;DHT22;6925;47.816;13.072;2022-07-06T20:54:19;23.00;55.10
13707;DHT22;6925;47.816;13.072;2022-07-06T20:56:47;22.90;55.00
13707;DHT22;6925;47.816;13.072;2022-07-06T20:59:14;22.90;55.70
13707;DHT22;6925;47.816;13.072;2022-07-06T21:01:43;22.80;55.40
13707;DHT22;6925;47.816;13.072;2022-07-06T21:04:10;22.80;55.60
13707;DHT22;6925;47.816;13.072;2022-07-06T21:06:38;22.70;56.10
13707;DHT22;6925;47.816;13.072;2022-07-06T21:09:12;22.70;56.80
13707;DHT22;6925;47.816;13.072;2022-07-06T21:12:12;22.70;56.50
13707;DHT22;6925;47.816;13.072;2022-07-06T21:14:54;22.70;56.90
13707;DHT22;6925;47.816;13.072;2022-07-06T21:17:22;22.60;56.10
13707;DHT22;6925;47.816;13.072;2022-07-06T21:19:50;22.60;56.70
13707;DHT22;6925;47.816;13.072;2022-07-06T21:22:17;22.60;57.20
13707;DHT22;6925;47.816;13.072;2022-07-06T21:24:44;22.60;56.60
13707;DHT22;6925;47.816;13.072;2022-07-06T21:27:12;22.50;56.50
13707;DHT22;6925;47.816;13.072;2022-07-06T21:29:39;22.50;56.40
13707;DHT22;6925;47.816;13.072;2022-07-06T21:32:08;22.40;56.50
13707;DHT22;6925;47.816;13.072;2022-07-06T21:34:38;22.40;56.90
13707;DHT22;6925;47.816;13.072;2022-07-06T21:37:14;22.40;57.10
13707;DHT22;6925;47.816;13.072;2022-07-06T21:39:53;22.40;57.90
13707;DHT22;6925;47.816;13.072;2022-07-06T21:42:20;22.30;58.30
13707;DHT22;6925;47.816;13.072;2022-07-06T21:44:50;22.30;58.40
13707;DHT22;6925;47.816;13.072;2022-07-06T21:47:17;22.30;57.50
13707;DHT22;6925;47.816;13.072;2022-07-06T21:49:46;22.30;57.40
13707;DHT22;6925;47.816;13.072;2022-07-06T21:52:14;22.30;57.80
13707;DHT22;6925;47.816;13.072;2022-07-06T21:54:41;22.30;57.80
13707;DHT22;6925;47.816;13.072;2022-07-06T21:57:09;22.30;57.70
13707;DHT22;6925;47.816;13.072;2022-07-06T21:59:40;22.30;57.10
13707;DHT22;6925;47.816;13.072;2022-07-06T22:02:09;22.20;57.30
13707;DHT22;6925;47.816;13.072;2022-07-06T22:04:36;22.30;58.50
13707;DHT22;6925;47.816;13.072;2022-07-06T22:07:07;22.30;58.50
13707;DHT22;6925;47.816;13.072;2022-07-06T22:09:45;22.30;58.40
13707;DHT22;6925;47.816;13.072;2022-07-06T22:12:12;22.30;57.90
13707;DHT22;6925;47.816;13.072;2022-07-06T22:14:48;22.30;59.00
13707;DHT22;6925;47.816;13.072;2022-07-06T22:17:16;22.20;59.00
13707;DHT22;6925;47.816;13.072;2022-07-06T22:19:44;22.10;59.00
13707;DHT22;6925;47.816;13.072;2022-07-06T22:22:13;22.10;59.60
13707;DHT22;6925;47.816;13.072;2022-07-06T22:24:42;22.10;59.50
13707;DHT22;6925;47.816;13.072;2022-07-06T22:27:09;22.10;59.90
13707;DHT22;6925;47.816;13.072;2022-07-06T22:29:36;22.10;58.80
13707;DHT22;6925;47.816;13.072;2022-07-06T22:32:04;22.10;59.20
13707;DHT22;6925;47.816;13.072;2022-07-06T22:34:32;22.00;59.50
13707;DHT22;6925;47.816;13.072;2022-07-06T22:36:59;22.00;59.20
13707;DHT22;6925;47.816;13.072;2022-07-06T22:39:28;22.10;59.40
13707;DHT22;6925;47.816;13.072;2022-07-06T22:41:55;22.10;59.60
13707;DHT22;6925;47.816;13.072;2022-07-06T22:44:23;22.10;60.20
13707;DHT22;6925;47.816;13.072;2022-07-06T22:46:51;22.10;60.00
13707;DHT22;6925;47.816;13.072;2022-07-06T22:49:18;22.10;60.30
13707;DHT22;6925;47.816;13.072;2022-07-06T22:51:45;22.10;60.50
13707;DHT22;6925;47.816;13.072;2022-07-06T22:56:58;22.10;60.70
13707;DHT22;6925;47.816;13.072;2022-07-06T22:59:33;22.00;60.70
13707;DHT22;6925;47.816;13.072;2022-07-06T23:02:05;22.00;60.60
13707;DHT22;6925;47.816;13.072;2022-07-06T23:04:49;22.00;61.00
13707;DHT22;6925;47.816;13.072;2022-07-06T23:13:52;22.00;59.90
13707;DHT22;6925;47.816;13.072;2022-07-06T23:35:03;21.80;60.20
13707;DHT22;6925;47.816;13.072;2022-07-06T23:37:30;21.80;60.40
13707;DHT22;6925;47.816;13.072;2022-07-06T23:39:59;21.70;60.40
13707;DHT22;6925;47.816;13.072;2022-07-06T23:42:28;21.80;60.70
13707;DHT22;6925;47.816;13.072;2022-07-06T23:44:57;21.70;60.00
13707;DHT22;6925;47.816;13.072;2022-07-06T23:47:25;21.70;60.40
13707;DHT22;6925;47.816;13.072;2022-07-06T23:49:58;21.70;59.90
13707;DHT22;6925;47.816;13.072;2022-07-06T23:52:35;21.80;60.00
13707;DHT22;6925;47.816;13.072;2022-07-06T23:55:07;21.80;60.90
